CA26 weather

Hall of Justice Heliport
San Francisco, California, United States

Public forecast

Using degrees Fahrenheit for public forecast. Weather courtesy of forecast.io.

Closest aviation weather report (METAR) to Hall of Justice Heliport

Closest report is Metropolitan Oakland International Airport, 9.3 nm (17.2 km) ESE. Retrieved 2019/12/12 13:24 UTC (0 seconds ago):

KOAK 121324Z 00000KT 8SM -RA FEW010 OVC014 16/14 A3025 RMK AO2 RAB16 P0000 T01560139

Closest aviation forecast (TAF) to Hall of Justice Heliport

Closest forecast is Metropolitan Oakland International Airport, 9.3 nm (17.2 km) ESE. Retrieved 2019/12/12 12:27 UTC (57 minutes ago):

TAF KOAK 121125Z 1212/1318 17005KT 5SM BR VCSH OVC015 FM121900 18004KT P6SM VCSH BKN015 OVC025 FM130300 VRB03KT P6SM VCSH OVC012 FM130900 VRB03KT 5SM BR OVC009 FM131300 VRB03KT 4SM BR VCSH OVC006